sensor_id;sensor_type;location;lat;lon;timestamp;pressure;altitude;pressure_sealevel;temperature;humidity
50682;BME280;36779;52.168;20.878;2023-01-29T00:01:11;101413.52;;;-1.59;77.27
50682;BME280;36779;52.168;20.878;2023-01-29T00:03:40;101420.22;;;-1.61;77.29
50682;BME280;36779;52.168;20.878;2023-01-29T00:06:10;101423.13;;;-1.65;77.25
50682;BME280;36779;52.168;20.878;2023-01-29T00:08:40;101421.86;;;-1.68;77.26
50682;BME280;36779;52.168;20.878;2023-01-29T00:11:09;101418.40;;;-1.69;77.21
50682;BME280;36779;52.168;20.878;2023-01-29T00:13:38;101406.61;;;-1.65;77.41
50682;BME280;36779;52.168;20.878;2023-01-29T00:16:07;101399.86;;;-1.62;77.34
50682;BME280;36779;52.168;20.878;2023-01-29T00:18:39;101399.11;;;-1.61;77.33
50682;BME280;36779;52.168;20.878;2023-01-29T00:21:09;101396.68;;;-1.61;77.19
50682;BME280;36779;52.168;20.878;2023-01-29T00:23:39;101397.02;;;-1.61;77.20
50682;BME280;36779;52.168;20.878;2023-01-29T00:26:08;101394.42;;;-1.61;77.17
50682;BME280;36779;52.168;20.878;2023-01-29T00:28:38;101386.41;;;-1.61;77.25
50682;BME280;36779;52.168;20.878;2023-01-29T00:31:08;101389.22;;;-1.62;77.32
50682;BME280;36779;52.168;20.878;2023-01-29T00:33:38;101387.36;;;-1.63;77.36
50682;BME280;36779;52.168;20.878;2023-01-29T00:36:12;101379.81;;;-1.67;77.31
50682;BME280;36779;52.168;20.878;2023-01-29T00:38:42;101373.35;;;-1.71;77.25
50682;BME280;36779;52.168;20.878;2023-01-29T00:41:13;101377.48;;;-1.74;77.24
50682;BME280;36779;52.168;20.878;2023-01-29T00:44:01;101378.20;;;-1.79;77.05
50682;BME280;36779;52.168;20.878;2023-01-29T00:46:50;101373.90;;;-1.81;77.25
50682;BME280;36779;52.168;20.878;2023-01-29T00:49:20;101371.29;;;-1.80;77.23
50682;BME280;36779;52.168;20.878;2023-01-29T00:51:52;101369.19;;;-1.80;77.16
50682;BME280;36779;52.168;20.878;2023-01-29T00:54:39;101374.55;;;-1.79;77.19
50682;BME280;36779;52.168;20.878;2023-01-29T00:57:09;101367.40;;;-1.79;77.19
50682;BME280;36779;52.168;20.878;2023-01-29T00:59:38;101363.30;;;-1.77;77.12
50682;BME280;36779;52.168;20.878;2023-01-29T01:02:07;101360.83;;;-1.75;77.11
50682;BME280;36779;52.168;20.878;2023-01-29T01:04:54;101357.83;;;-1.75;77.31
50682;BME280;36779;52.168;20.878;2023-01-29T01:07:27;101360.92;;;-1.74;77.27
50682;BME280;36779;52.168;20.878;2023-01-29T01:09:57;101354.48;;;-1.74;77.32
50682;BME280;36779;52.168;20.878;2023-01-29T01:12:46;101336.58;;;-1.75;77.30
50682;BME280;36779;52.168;20.878;2023-01-29T01:15:15;101329.58;;;-1.79;77.25
50682;BME280;36779;52.168;20.878;2023-01-29T01:17:45;101325.21;;;-1.83;77.27
50682;BME280;36779;52.168;20.878;2023-01-29T01:20:16;101313.13;;;-1.86;77.17
50682;BME280;36779;52.168;20.878;2023-01-29T01:22:46;101313.40;;;-1.88;77.21
50682;BME280;36779;52.168;20.878;2023-01-29T01:25:14;101313.02;;;-1.92;77.10
50682;BME280;36779;52.168;20.878;2023-01-29T01:27:45;101313.63;;;-1.94;77.09
50682;BME280;36779;52.168;20.878;2023-01-29T01:30:16;101311.98;;;-1.97;77.21
50682;BME280;36779;52.168;20.878;2023-01-29T01:32:45;101317.61;;;-1.98;77.10
50682;BME280;36779;52.168;20.878;2023-01-29T01:35:14;101313.41;;;-1.98;77.08
50682;BME280;36779;52.168;20.878;2023-01-29T01:37:43;101312.98;;;-1.96;77.10
50682;BME280;36779;52.168;20.878;2023-01-29T01:40:19;101321.61;;;-1.93;77.11
50682;BME280;36779;52.168;20.878;2023-01-29T01:42:49;101318.55;;;-1.91;77.10
50682;BME280;36779;52.168;20.878;2023-01-29T01:45:21;101321.75;;;-1.88;77.19
50682;BME280;36779;52.168;20.878;2023-01-29T01:47:57;101311.02;;;-1.85;77.14
50682;BME280;36779;52.168;20.878;2023-01-29T01:50:30;101305.55;;;-1.84;77.24
50682;BME280;36779;52.168;20.878;2023-01-29T01:53:06;101312.88;;;-1.84;77.21
50682;BME280;36779;52.168;20.878;2023-01-29T01:55:38;101321.12;;;-1.85;77.17
50682;BME280;36779;52.168;20.878;2023-01-29T01:58:12;101325.17;;;-1.87;77.21
50682;BME280;36779;52.168;20.878;2023-01-29T02:00:43;101322.95;;;-1.87;77.17
50682;BME280;36779;52.168;20.878;2023-01-29T02:03:13;101315.12;;;-1.88;77.28
50682;BME280;36779;52.168;20.878;2023-01-29T02:06:00;101315.75;;;-1.91;77.21
50682;BME280;36779;52.168;20.878;2023-01-29T02:08:52;101324.36;;;-1.92;77.08
50682;BME280;36779;52.168;20.878;2023-01-29T02:11:42;101326.03;;;-1.95;77.11
50682;BME280;36779;52.168;20.878;2023-01-29T02:14:12;101320.20;;;-1.97;77.05
50682;BME280;36779;52.168;20.878;2023-01-29T02:16:42;101319.37;;;-1.98;77.21
50682;BME280;36779;52.168;20.878;2023-01-29T02:19:27;101325.10;;;-1.98;77.01
50682;BME280;36779;52.168;20.878;2023-01-29T02:22:09;101324.98;;;-1.95;76.98
50682;BME280;36779;52.168;20.878;2023-01-29T02:25:11;101323.48;;;-1.92;77.10
50682;BME280;36779;52.168;20.878;2023-01-29T02:28:13;101318.30;;;-1.89;76.93
50682;BME280;36779;52.168;20.878;2023-01-29T02:30:47;101309.89;;;-1.88;76.93
50682;BME280;36779;52.168;20.878;2023-01-29T02:33:28;101306.54;;;-1.87;77.08
50682;BME280;36779;52.168;20.878;2023-01-29T02:36:08;101301.66;;;-1.86;77.22
50682;BME280;36779;52.168;20.878;2023-01-29T02:38:44;101297.15;;;-1.87;77.10
50682;BME280;36779;52.168;20.878;2023-01-29T02:41:25;101296.73;;;-1.90;77.05
50682;BME280;36779;52.168;20.878;2023-01-29T02:43:59;101298.75;;;-1.92;77.07
50682;BME280;36779;52.168;20.878;2023-01-29T02:46:35;101293.27;;;-1.95;76.97
50682;BME280;36779;52.168;20.878;2023-01-29T02:49:10;101292.80;;;-1.96;77.07
50682;BME280;36779;52.168;20.878;2023-01-29T02:51:50;101291.55;;;-2.00;77.10
50682;BME280;36779;52.168;20.878;2023-01-29T02:54:27;101288.27;;;-2.01;76.96
50682;BME280;36779;52.168;20.878;2023-01-29T02:57:04;101285.27;;;-1.99;76.89
50682;BME280;36779;52.168;20.878;2023-01-29T02:59:39;101283.48;;;-1.98;76.96
50682;BME280;36779;52.168;20.878;2023-01-29T03:02:14;101288.28;;;-1.96;77.02
50682;BME280;36779;52.168;20.878;2023-01-29T03:04:51;101286.14;;;-1.95;76.98
50682;BME280;36779;52.168;20.878;2023-01-29T03:07:26;101286.58;;;-1.93;77.03
50682;BME280;36779;52.168;20.878;2023-01-29T03:10:16;101276.58;;;-1.92;77.07
50682;BME280;36779;52.168;20.878;2023-01-29T03:12:52;101272.36;;;-1.91;76.99
50682;BME280;36779;52.168;20.878;2023-01-29T03:15:27;101269.08;;;-1.91;77.06
50682;BME280;36779;52.168;20.878;2023-01-29T03:18:17;101270.52;;;-1.93;77.06
50682;BME280;36779;52.168;20.878;2023-01-29T03:20:59;101266.10;;;-1.95;76.99
50682;BME280;36779;52.168;20.878;2023-01-29T03:23:33;101274.05;;;-1.98;76.93
50682;BME280;36779;52.168;20.878;2023-01-29T03:26:22;101275.52;;;-2.00;76.90
50682;BME280;36779;52.168;20.878;2023-01-29T03:29:12;101269.83;;;-2.02;76.92
50682;BME280;36779;52.168;20.878;2023-01-29T03:32:00;101262.39;;;-2.02;76.94
50682;BME280;36779;52.168;20.878;2023-01-29T03:34:38;101267.52;;;-2.00;76.85
50682;BME280;36779;52.168;20.878;2023-01-29T03:37:13;101269.86;;;-1.98;76.93
50682;BME280;36779;52.168;20.878;2023-01-29T03:39:47;101271.83;;;-1.95;76.91
50682;BME280;36779;52.168;20.878;2023-01-29T03:42:23;101271.84;;;-1.91;76.95
50682;BME280;36779;52.168;20.878;2023-01-29T03:45:03;101263.71;;;-1.88;76.99
50682;BME280;36779;52.168;20.878;2023-01-29T03:47:43;101269.05;;;-1.86;77.00
50682;BME280;36779;52.168;20.878;2023-01-29T03:50:23;101272.88;;;-1.86;77.10
50682;BME280;36779;52.168;20.878;2023-01-29T03:53:03;101276.33;;;-1.85;77.01
50682;BME280;36779;52.168;20.878;2023-01-29T03:55:42;101272.38;;;-1.86;76.91
50682;BME280;36779;52.168;20.878;2023-01-29T03:58:26;101264.61;;;-1.88;76.98
50682;BME280;36779;52.168;20.878;2023-01-29T04:01:00;101260.48;;;-1.90;76.99
50682;BME280;36779;52.168;20.878;2023-01-29T04:03:34;101263.64;;;-1.90;77.00
50682;BME280;36779;52.168;20.878;2023-01-29T04:06:12;101260.76;;;-1.92;76.93
50682;BME280;36779;52.168;20.878;2023-01-29T04:09:08;101258.34;;;-1.93;76.98
50682;BME280;36779;52.168;20.878;2023-01-29T04:11:44;101249.91;;;-1.91;76.96
50682;BME280;36779;52.168;20.878;2023-01-29T04:14:16;101254.04;;;-1.89;76.97
50682;BME280;36779;52.168;20.878;2023-01-29T04:16:50;101253.55;;;-1.86;76.99
50682;BME280;36779;52.168;20.878;2023-01-29T04:19:40;101253.73;;;-1.82;76.97
50682;BME280;36779;52.168;20.878;2023-01-29T04:22:12;101251.80;;;-1.78;77.11
50682;BME280;36779;52.168;20.878;2023-01-29T04:24:46;101245.77;;;-1.75;76.99
50682;BME280;36779;52.168;20.878;2023-01-29T04:27:39;101239.17;;;-1.76;76.97
50682;BME280;36779;52.168;20.878;2023-01-29T04:30:22;101237.52;;;-1.78;77.00
50682;BME280;36779;52.168;20.878;2023-01-29T04:33:10;101238.09;;;-1.79;76.96
50682;BME280;36779;52.168;20.878;2023-01-29T04:35:57;101233.45;;;-1.80;76.98
50682;BME280;36779;52.168;20.878;2023-01-29T04:38:43;101234.61;;;-1.83;77.01
50682;BME280;36779;52.168;20.878;2023-01-29T04:41:21;101233.13;;;-1.85;76.93
50682;BME280;36779;52.168;20.878;2023-01-29T04:43:56;101233.27;;;-1.89;76.92
50682;BME280;36779;52.168;20.878;2023-01-29T04:46:33;101236.09;;;-1.90;76.88
50682;BME280;36779;52.168;20.878;2023-01-29T04:49:13;101235.57;;;-1.90;76.89
50682;BME280;36779;52.168;20.878;2023-01-29T04:51:53;101237.23;;;-1.88;76.86
50682;BME280;36779;52.168;20.878;2023-01-29T04:54:27;101237.48;;;-1.85;76.80
50682;BME280;36779;52.168;20.878;2023-01-29T04:57:07;101231.23;;;-1.82;76.95
50682;BME280;36779;52.168;20.878;2023-01-29T04:59:40;101223.52;;;-1.80;76.86
50682;BME280;36779;52.168;20.878;2023-01-29T05:02:11;101218.35;;;-1.78;76.91
50682;BME280;36779;52.168;20.878;2023-01-29T05:04:43;101216.89;;;-1.76;77.07
50682;BME280;36779;52.168;20.878;2023-01-29T05:07:14;101215.63;;;-1.75;76.97
50682;BME280;36779;52.168;20.878;2023-01-29T05:09:47;101211.67;;;-1.76;77.02
50682;BME280;36779;52.168;20.878;2023-01-29T05:12:18;101211.90;;;-1.78;76.96
50682;BME280;36779;52.168;20.878;2023-01-29T05:14:50;101217.24;;;-1.80;76.93
50682;BME280;36779;52.168;20.878;2023-01-29T05:17:21;101219.23;;;-1.82;76.83
50682;BME280;36779;52.168;20.878;2023-01-29T05:19:55;101217.08;;;-1.85;76.95
50682;BME280;36779;52.168;20.878;2023-01-29T05:22:27;101217.34;;;-1.87;76.75
50682;BME280;36779;52.168;20.878;2023-01-29T05:24:57;101213.77;;;-1.89;76.87
50682;BME280;36779;52.168;20.878;2023-01-29T05:27:33;101212.89;;;-1.89;76.95
50682;BME280;36779;52.168;20.878;2023-01-29T05:30:20;101212.65;;;-1.87;76.92
50682;BME280;36779;52.168;20.878;2023-01-29T05:32:54;101208.73;;;-1.85;76.92
50682;BME280;36779;52.168;20.878;2023-01-29T05:35:28;101208.80;;;-1.83;76.87
50682;BME280;36779;52.168;20.878;2023-01-29T05:37:58;101201.21;;;-1.81;76.88
50682;BME280;36779;52.168;20.878;2023-01-29T05:40:28;101193.77;;;-1.78;76.94
50682;BME280;36779;52.168;20.878;2023-01-29T05:42:58;101190.43;;;-1.77;76.80
50682;BME280;36779;52.168;20.878;2023-01-29T05:45:27;101194.95;;;-1.77;76.96
50682;BME280;36779;52.168;20.878;2023-01-29T05:48:00;101199.14;;;-1.77;76.88
50682;BME280;36779;52.168;20.878;2023-01-29T05:50:28;101195.70;;;-1.78;76.93
50682;BME280;36779;52.168;20.878;2023-01-29T05:52:59;101192.63;;;-1.79;76.93
50682;BME280;36779;52.168;20.878;2023-01-29T05:55:29;101190.92;;;-1.80;76.98
50682;BME280;36779;52.168;20.878;2023-01-29T05:57:59;101187.15;;;-1.81;76.95
50682;BME280;36779;52.168;20.878;2023-01-29T06:00:28;101186.80;;;-1.82;76.96
50682;BME280;36779;52.168;20.878;2023-01-29T06:03:00;101182.83;;;-1.82;76.91
50682;BME280;36779;52.168;20.878;2023-01-29T06:05:29;101182.67;;;-1.83;76.71
50682;BME280;36779;52.168;20.878;2023-01-29T06:07:59;101184.58;;;-1.82;76.79
50682;BME280;36779;52.168;20.878;2023-01-29T06:10:30;101187.10;;;-1.80;76.89
50682;BME280;36779;52.168;20.878;2023-01-29T06:12:59;101197.25;;;-1.77;76.83
50682;BME280;36779;52.168;20.878;2023-01-29T06:15:30;101198.35;;;-1.75;76.85
50682;BME280;36779;52.168;20.878;2023-01-29T06:17:59;101198.74;;;-1.72;76.94
50682;BME280;36779;52.168;20.878;2023-01-29T06:20:29;101199.20;;;-1.70;76.90
50682;BME280;36779;52.168;20.878;2023-01-29T06:23:00;101199.33;;;-1.69;76.95
50682;BME280;36779;52.168;20.878;2023-01-29T06:25:30;101195.70;;;-1.69;77.07
50682;BME280;36779;52.168;20.878;2023-01-29T06:27:59;101201.13;;;-1.70;76.84
50682;BME280;36779;52.168;20.878;2023-01-29T06:30:30;101201.72;;;-1.72;76.96
50682;BME280;36779;52.168;20.878;2023-01-29T06:33:00;101197.73;;;-1.72;76.90
50682;BME280;36779;52.168;20.878;2023-01-29T06:35:30;101196.55;;;-1.73;76.85
50682;BME280;36779;52.168;20.878;2023-01-29T06:38:00;101193.95;;;-1.74;76.82
50682;BME280;36779;52.168;20.878;2023-01-29T06:40:29;101195.88;;;-1.74;76.90
50682;BME280;36779;52.168;20.878;2023-01-29T06:42:59;101194.30;;;-1.73;76.99
50682;BME280;36779;52.168;20.878;2023-01-29T06:45:30;101188.87;;;-1.73;76.82
50682;BME280;36779;52.168;20.878;2023-01-29T06:48:00;101190.10;;;-1.69;76.93
50682;BME280;36779;52.168;20.878;2023-01-29T06:50:31;101192.75;;;-1.65;76.89
50682;BME280;36779;52.168;20.878;2023-01-29T06:53:00;101192.95;;;-1.62;76.79
50682;BME280;36779;52.168;20.878;2023-01-29T06:55:30;101191.95;;;-1.59;76.89
50682;BME280;36779;52.168;20.878;2023-01-29T06:57:59;101192.58;;;-1.57;76.79
50682;BME280;36779;52.168;20.878;2023-01-29T07:00:28;101190.27;;;-1.56;76.92
50682;BME280;36779;52.168;20.878;2023-01-29T07:02:59;101192.16;;;-1.55;76.83
50682;BME280;36779;52.168;20.878;2023-01-29T07:05:30;101191.33;;;-1.56;76.84
50682;BME280;36779;52.168;20.878;2023-01-29T07:07:59;101190.46;;;-1.57;76.77
50682;BME280;36779;52.168;20.878;2023-01-29T07:10:28;101188.02;;;-1.57;76.89
50682;BME280;36779;52.168;20.878;2023-01-29T07:13:00;101178.64;;;-1.57;76.82
50682;BME280;36779;52.168;20.878;2023-01-29T07:15:30;101167.20;;;-1.59;76.82
50682;BME280;36779;52.168;20.878;2023-01-29T07:18:01;101155.36;;;-1.59;76.76
50682;BME280;36779;52.168;20.878;2023-01-29T07:20:32;101155.11;;;-1.58;76.93
50682;BME280;36779;52.168;20.878;2023-01-29T07:23:01;101162.08;;;-1.53;76.83
50682;BME280;36779;52.168;20.878;2023-01-29T07:25:29;101170.39;;;-1.48;76.80
50682;BME280;36779;52.168;20.878;2023-01-29T07:28:00;101172.33;;;-1.45;76.94
50682;BME280;36779;52.168;20.878;2023-01-29T07:30:32;101170.02;;;-1.40;76.90
50682;BME280;36779;52.168;20.878;2023-01-29T07:33:08;101167.27;;;-1.36;77.03
50682;BME280;36779;52.168;20.878;2023-01-29T07:35:40;101174.38;;;-1.35;76.91
50682;BME280;36779;52.168;20.878;2023-01-29T07:38:10;101185.48;;;-1.34;76.96
50682;BME280;36779;52.168;20.878;2023-01-29T07:40:44;101196.44;;;-1.34;76.77
50682;BME280;36779;52.168;20.878;2023-01-29T07:43:16;101197.85;;;-1.34;76.87
50682;BME280;36779;52.168;20.878;2023-01-29T07:45:45;101199.91;;;-1.33;76.96
50682;BME280;36779;52.168;20.878;2023-01-29T07:48:19;101199.00;;;-1.32;76.88
50682;BME280;36779;52.168;20.878;2023-01-29T07:50:55;101199.48;;;-1.31;76.96
50682;BME280;36779;52.168;20.878;2023-01-29T07:53:26;101195.08;;;-1.30;76.92
50682;BME280;36779;52.168;20.878;2023-01-29T07:55:56;101189.76;;;-1.28;76.80
50682;BME280;36779;52.168;20.878;2023-01-29T07:58:26;101186.16;;;-1.26;76.75
50682;BME280;36779;52.168;20.878;2023-01-29T08:00:58;101183.02;;;-1.22;76.91
50682;BME280;36779;52.168;20.878;2023-01-29T08:03:27;101176.81;;;-1.15;76.78
50682;BME280;36779;52.168;20.878;2023-01-29T08:05:59;101174.79;;;-1.09;76.82
50682;BME280;36779;52.168;20.878;2023-01-29T08:08:29;101172.98;;;-1.04;76.98
50682;BME280;36779;52.168;20.878;2023-01-29T08:11:00;101173.50;;;-1.00;76.88
50682;BME280;36779;52.168;20.878;2023-01-29T08:13:29;101176.69;;;-0.97;76.94
50682;BME280;36779;52.168;20.878;2023-01-29T08:16:01;101174.92;;;-0.96;76.89
50682;BME280;36779;52.168;20.878;2023-01-29T08:18:31;101170.57;;;-0.97;76.77
50682;BME280;36779;52.168;20.878;2023-01-29T08:21:00;101166.58;;;-0.98;76.84
50682;BME280;36779;52.168;20.878;2023-01-29T08:23:29;101158.17;;;-0.97;76.76
50682;BME280;36779;52.168;20.878;2023-01-29T08:25:58;101160.83;;;-0.97;76.73
50682;BME280;36779;52.168;20.878;2023-01-29T08:28:29;101159.13;;;-0.99;76.75
50682;BME280;36779;52.168;20.878;2023-01-29T08:30:58;101163.06;;;-1.01;76.77
50682;BME280;36779;52.168;20.878;2023-01-29T08:33:27;101158.14;;;-1.00;76.73
50682;BME280;36779;52.168;20.878;2023-01-29T08:36:09;101160.10;;;-0.97;76.84
50682;BME280;36779;52.168;20.878;2023-01-29T08:38:38;101159.20;;;-0.92;76.68
50682;BME280;36779;52.168;20.878;2023-01-29T08:41:08;101159.04;;;-0.88;76.71
50682;BME280;36779;52.168;20.878;2023-01-29T08:43:38;101160.41;;;-0.84;76.95
50682;BME280;36779;52.168;20.878;2023-01-29T08:46:10;101160.91;;;-0.80;76.90
50682;BME280;36779;52.168;20.878;2023-01-29T08:48:39;101162.66;;;-0.76;76.81
50682;BME280;36779;52.168;20.878;2023-01-29T08:51:08;101162.27;;;-0.72;76.96
50682;BME280;36779;52.168;20.878;2023-01-29T08:53:37;101156.55;;;-0.68;76.85
50682;BME280;36779;52.168;20.878;2023-01-29T08:56:07;101152.46;;;-0.67;76.86
50682;BME280;36779;52.168;20.878;2023-01-29T08:58:36;101148.37;;;-0.65;76.80
50682;BME280;36779;52.168;20.878;2023-01-29T09:01:09;101146.98;;;-0.65;76.73
50682;BME280;36779;52.168;20.878;2023-01-29T09:03:38;101147.38;;;-0.67;76.85
50682;BME280;36779;52.168;20.878;2023-01-29T09:06:10;101144.80;;;-0.64;76.89
50682;BME280;36779;52.168;20.878;2023-01-29T09:08:40;101138.61;;;-0.59;76.83
50682;BME280;36779;52.168;20.878;2023-01-29T09:11:08;101133.88;;;-0.51;77.04
50682;BME280;36779;52.168;20.878;2023-01-29T09:13:38;101134.55;;;-0.43;76.91
50682;BME280;36779;52.168;20.878;2023-01-29T09:16:08;101128.02;;;-0.34;76.90
50682;BME280;36779;52.168;20.878;2023-01-29T09:18:37;101115.26;;;-0.23;76.97
50682;BME280;36779;52.168;20.878;2023-01-29T09:21:06;101111.17;;;-0.11;76.97
50682;BME280;36779;52.168;20.878;2023-01-29T09:23:35;101102.97;;;-0.05;76.93
50682;BME280;36779;52.168;20.878;2023-01-29T09:26:04;101104.02;;;-0.01;76.90
50682;BME280;36779;52.168;20.878;2023-01-29T09:28:34;101104.45;;;0.04;76.87
50682;BME280;36779;52.168;20.878;2023-01-29T09:31:04;101112.80;;;0.09;76.90
50682;BME280;36779;52.168;20.878;2023-01-29T09:33:33;101113.84;;;0.12;76.85
50682;BME280;36779;52.168;20.878;2023-01-29T09:36:03;101111.75;;;0.09;76.62
50682;BME280;36779;52.168;20.878;2023-01-29T09:38:32;101105.98;;;0.02;76.59
50682;BME280;36779;52.168;20.878;2023-01-29T09:41:07;101108.73;;;-0.04;76.54
50682;BME280;36779;52.168;20.878;2023-01-29T09:43:45;101107.31;;;-0.08;76.60
50682;BME280;36779;52.168;20.878;2023-01-29T09:46:19;101102.34;;;-0.06;76.66
50682;BME280;36779;52.168;20.878;2023-01-29T09:48:56;101096.02;;;-0.02;76.66
50682;BME280;36779;52.168;20.878;2023-01-29T09:51:33;101094.27;;;0.06;76.77
50682;BME280;36779;52.168;20.878;2023-01-29T09:54:13;101090.70;;;0.14;76.80
50682;BME280;36779;52.168;20.878;2023-01-29T09:56:46;101084.58;;;0.24;76.82
50682;BME280;36779;52.168;20.878;2023-01-29T09:59:17;101081.05;;;0.35;76.94
50682;BME280;36779;52.168;20.878;2023-01-29T10:01:57;101078.41;;;0.45;76.97
50682;BME280;36779;52.168;20.878;2023-01-29T10:04:30;101073.61;;;0.56;77.11
50682;BME280;36779;52.168;20.878;2023-01-29T10:07:17;101071.09;;;0.71;77.16
50682;BME280;36779;52.168;20.878;2023-01-29T10:10:02;101074.39;;;0.84;77.18
50682;BME280;36779;52.168;20.878;2023-01-29T10:12:49;101072.99;;;0.90;76.83
50682;BME280;36779;52.168;20.878;2023-01-29T10:15:31;101070.56;;;0.93;76.85
50682;BME280;36779;52.168;20.878;2023-01-29T10:18:25;101066.13;;;0.91;76.64
50682;BME280;36779;52.168;20.878;2023-01-29T10:21:07;101065.21;;;0.86;76.51
50682;BME280;36779;52.168;20.878;2023-01-29T10:23:42;101061.27;;;0.84;76.46
50682;BME280;36779;52.168;20.878;2023-01-29T10:26:14;101057.95;;;0.81;76.40
50682;BME280;36779;52.168;20.878;2023-01-29T10:28:44;101058.52;;;0.80;76.42
50682;BME280;36779;52.168;20.878;2023-01-29T10:31:18;101059.66;;;0.82;76.54
50682;BME280;36779;52.168;20.878;2023-01-29T10:33:55;101058.20;;;0.80;76.34
50682;BME280;36779;52.168;20.878;2023-01-29T10:36:35;101058.75;;;0.76;76.30
50682;BME280;36779;52.168;20.878;2023-01-29T10:39:15;101057.89;;;0.69;76.37
50682;BME280;36779;52.168;20.878;2023-01-29T10:41:56;101056.01;;;0.65;76.44
50682;BME280;36779;52.168;20.878;2023-01-29T10:44:39;101053.79;;;0.58;76.39
50682;BME280;36779;52.168;20.878;2023-01-29T10:47:25;101057.34;;;0.50;76.38
50682;BME280;36779;52.168;20.878;2023-01-29T10:50:16;101052.23;;;0.44;76.36
50682;BME280;36779;52.168;20.878;2023-01-29T10:53:11;101051.21;;;0.43;76.33
50682;BME280;36779;52.168;20.878;2023-01-29T10:55:54;101049.73;;;0.41;76.32
50682;BME280;36779;52.168;20.878;2023-01-29T10:58:31;101045.09;;;0.37;76.22
50682;BME280;36779;52.168;20.878;2023-01-29T11:01:02;101043.69;;;0.37;76.41
50682;BME280;36779;52.168;20.878;2023-01-29T11:03:32;101041.60;;;0.40;76.45
50682;BME280;36779;52.168;20.878;2023-01-29T11:06:08;101035.25;;;0.44;76.53
50682;BME280;36779;52.168;20.878;2023-01-29T11:08:41;101029.45;;;0.48;76.61
50682;BME280;36779;52.168;20.878;2023-01-29T11:11:14;101025.31;;;0.51;76.57
50682;BME280;36779;52.168;20.878;2023-01-29T11:13:49;101018.64;;;0.51;76.63
50682;BME280;36779;52.168;20.878;2023-01-29T11:16:22;101017.96;;;0.51;76.66
50682;BME280;36779;52.168;20.878;2023-01-29T11:18:55;101021.08;;;0.51;76.71
50682;BME280;36779;52.168;20.878;2023-01-29T11:21:28;101022.38;;;0.53;76.63
50682;BME280;36779;52.168;20.878;2023-01-29T11:24:11;101009.63;;;0.53;76.71
50682;BME280;36779;52.168;20.878;2023-01-29T11:26:46;101007.36;;;0.56;76.62
50682;BME280;36779;52.168;20.878;2023-01-29T11:29:39;101006.73;;;0.61;76.71
50682;BME280;36779;52.168;20.878;2023-01-29T11:32:13;100998.61;;;0.68;76.68
50682;BME280;36779;52.168;20.878;2023-01-29T11:35:02;100991.20;;;0.76;76.70
50682;BME280;36779;52.168;20.878;2023-01-29T11:37:35;100980.31;;;0.83;76.70
50682;BME280;36779;52.168;20.878;2023-01-29T11:40:39;100973.48;;;0.86;76.62
50682;BME280;36779;52.168;20.878;2023-01-29T11:43:21;100965.42;;;0.87;76.58
50682;BME280;36779;52.168;20.878;2023-01-29T11:46:01;100958.90;;;0.87;76.66
50682;BME280;36779;52.168;20.878;2023-01-29T11:48:43;100957.06;;;0.86;76.67
50682;BME280;36779;52.168;20.878;2023-01-29T11:51:25;100953.64;;;0.81;76.46
50682;BME280;36779;52.168;20.878;2023-01-29T11:54:15;100948.17;;;0.76;76.52
50682;BME280;36779;52.168;20.878;2023-01-29T11:56:54;100945.13;;;0.74;76.52
50682;BME280;36779;52.168;20.878;2023-01-29T11:59:34;100948.02;;;0.69;76.36
50682;BME280;36779;52.168;20.878;2023-01-29T12:02:18;100944.27;;;0.67;76.48
50682;BME280;36779;52.168;20.878;2023-01-29T12:04:49;100937.48;;;0.67;76.57
50682;BME280;36779;52.168;20.878;2023-01-29T12:07:20;100934.71;;;0.66;76.57
50682;BME280;36779;52.168;20.878;2023-01-29T12:09:53;100932.85;;;0.59;76.38
50682;BME280;36779;52.168;20.878;2023-01-29T12:12:43;100924.75;;;0.50;76.46
50682;BME280;36779;52.168;20.878;2023-01-29T12:15:20;100925.17;;;0.43;76.48
50682;BME280;36779;52.168;20.878;2023-01-29T12:18:02;100923.31;;;0.35;76.43
50682;BME280;36779;52.168;20.878;2023-01-29T12:20:43;100925.02;;;0.32;76.60
50682;BME280;36779;52.168;20.878;2023-01-29T12:23:26;100913.30;;;0.30;76.43
50682;BME280;36779;52.168;20.878;2023-01-29T12:26:06;100905.40;;;0.27;76.47
50682;BME280;36779;52.168;20.878;2023-01-29T12:28:52;100907.18;;;0.30;76.58
50682;BME280;36779;52.168;20.878;2023-01-29T12:31:34;100907.63;;;0.31;76.68
50682;BME280;36779;52.168;20.878;2023-01-29T12:34:15;100904.92;;;0.29;76.49
50682;BME280;36779;52.168;20.878;2023-01-29T12:36:51;100903.09;;;0.24;76.64
50682;BME280;36779;52.168;20.878;2023-01-29T12:39:20;100904.02;;;0.20;76.66
50682;BME280;36779;52.168;20.878;2023-01-29T12:42:00;100900.20;;;0.16;76.56
50682;BME280;36779;52.168;20.878;2023-01-29T12:44:41;100896.23;;;0.12;76.60
50682;BME280;36779;52.168;20.878;2023-01-29T12:47:17;100888.86;;;0.10;76.48
50682;BME280;36779;52.168;20.878;2023-01-29T12:49:54;100883.29;;;0.09;76.60
50682;BME280;36779;52.168;20.878;2023-01-29T12:52:36;100880.38;;;0.11;76.57
50682;BME280;36779;52.168;20.878;2023-01-29T12:55:12;100873.10;;;0.13;76.64
50682;BME280;36779;52.168;20.878;2023-01-29T12:57:49;100872.58;;;0.13;76.63
50682;BME280;36779;52.168;20.878;2023-01-29T13:00:27;100871.84;;;0.14;76.65
50682;BME280;36779;52.168;20.878;2023-01-29T13:03:06;100869.95;;;0.13;76.64
50682;BME280;36779;52.168;20.878;2023-01-29T13:05:44;100864.45;;;0.12;76.58
50682;BME280;36779;52.168;20.878;2023-01-29T13:08:26;100865.65;;;0.09;76.68
50682;BME280;36779;52.168;20.878;2023-01-29T13:11:03;100867.30;;;0.04;76.56
50682;BME280;36779;52.168;20.878;2023-01-29T13:16:46;100882.88;;;-0.03;76.56
50682;BME280;36779;52.168;20.878;2023-01-29T13:19:27;100886.80;;;-0.05;76.62
50682;BME280;36779;52.168;20.878;2023-01-29T13:22:01;100885.77;;;-0.05;76.57
50682;BME280;36779;52.168;20.878;2023-01-29T13:24:38;100891.14;;;-0.04;76.59
50682;BME280;36779;52.168;20.878;2023-01-29T13:27:20;100891.17;;;-0.04;76.72